Time;durP1;ratioP1;P1;durP2;ratioP2;P2;SDS_P1;SDS_P2;PMS_P1;PMS_P2;Temp;Humidity;BMP_temperature;BMP_pressure;BME280_temperature;BME280_humidity;BME280_pressure;Samples;Min_cycle;Max_cycle;Signal;HPM_P1;HPM_P2
2022/03/05 00:02:24;;;;;;;8.07;5.83;;;;;;;;;;5046380;28;20033;-59
2022/03/05 00:05:10;;;;;;;10.70;6.30;;;;;;;;;;5045601;28;20597;-59
2022/03/05 00:13:45;;;;;;;18.83;8.05;;;;;;;;;;4993889;28;20038;-59
2022/03/05 00:16:20;;;;;;;10.50;6.40;;;;;;;;;;5079426;28;20067;-59
2022/03/05 00:19:06;;;;;;;16.17;7.57;;;;;;;;;;5085561;28;20076;-59
2022/03/05 00:21:46;;;;;;;9.63;6.93;;;;;;;;;;5085628;28;20033;-59
2022/03/05 00:24:34;;;;;;;12.65;8.45;;;;;;;;;;5086661;28;20490;-59
2022/03/05 00:27:10;;;;;;;8.73;4.87;;;;;;;;;;5083893;28;20043;-59
2022/03/05 00:29:54;;;;;;;14.53;7.13;;;;;;;;;;5085897;28;20035;-59
2022/03/05 00:35:44;;;;;;;9.67;6.63;;;;;;;;;;5025261;28;20045;-59
2022/03/05 00:38:21;;;;;;;15.17;7.03;;;;;;;;;;5082965;28;20036;-59
2022/03/05 00:41:06;;;;;;;9.53;6.30;;;;;;;;;;5068159;28;20493;-59
2022/03/05 00:43:50;;;;;;;7.97;5.17;;;;;;;;;;5085467;28;20206;-59
2022/03/05 00:46:44;;;;;;;;;;;;;;;;;;;;;
2022/03/05 00:49:40;;;;;;;7.63;5.57;;;;;;;;;;5069891;28;20470;-59
2022/03/05 00:52:12;;;;;;;6.00;4.40;;;;;;;;;;5085712;28;20105;-59
2022/03/05 00:54:51;;;;;;;5.00;4.13;;;;;;;;;;5068831;28;20120;-59
2022/03/05 00:58:02;;;;;;;7.03;4.37;;;;;;;;;;5086253;28;20394;-59
2022/03/05 01:00:57;;;;;;;;;;;;;;;;;;;;;
2022/03/05 01:06:32;;;;;;;5.87;4.67;;;;;;;;;;5072396;28;20054;-59
2022/03/05 01:12:01;;;;;;;4.67;3.93;;;;;;;;;;5075616;28;20028;-59
2022/03/05 01:17:51;;;;;;;9.30;5.13;;;;;;;;;;5095560;28;20073;-59
2022/03/05 01:23:38;;;;;;;5.90;4.77;;;;;;;;;;5098350;28;20032;-59
2022/03/05 01:26:08;;;;;;;6.27;4.33;;;;;;;;;;5106496;28;20084;-59
2022/03/05 01:28:41;;;;;;;7.70;5.03;;;;;;;;;;5107064;28;20389;-59
2022/03/05 01:31:09;;;;;;;9.67;5.23;;;;;;;;;;5087839;28;20051;-59
2022/03/05 01:36:39;;;;;;;5.40;3.67;;;;;;;;;;5106549;28;20085;-59
2022/03/05 01:45:23;;;;;;;5.33;4.53;;;;;;;;;;5086851;28;20032;-59
2022/03/05 01:48:15;;;;;;;;;;;;;;;;;;;;;
2022/03/05 01:51:10;;;;;;;6.63;5.13;;;;;;;;;;5105728;28;20044;-59
2022/03/05 01:53:48;;;;;;;5.10;3.83;;;;;;;;;;5106710;28;20027;-59
2022/03/05 01:56:32;;;;;;;;;;;;;;;;;;;;;
2022/03/05 01:59:09;;;;;;;6.07;4.03;;;;;;;;;;5107318;28;20445;-59
2022/03/05 02:01:50;;;;;;;7.93;5.27;;;;;;;;;;5088026;28;20089;-59
2022/03/05 02:04:25;;;;;;;6.27;4.43;;;;;;;;;;5105931;28;20032;-61
2022/03/05 02:07:19;;;;;;;7.60;4.70;;;;;;;;;;5105539;28;20035;-59
2022/03/05 02:13:23;;;;;;;5.47;4.93;;;;;;;;;;5024003;28;20034;-59
2022/03/05 02:19:05;;;;;;;10.47;5.30;;;;;;;;;;5024644;28;20072;-59
2022/03/05 02:22:10;;;;;;;;;;;;;;;;;;;;;
2022/03/05 02:37:04;;;;;;;6.97;4.57;;;;;;;;;;5105474;28;20027;-59
2022/03/05 02:39:48;;;;;;;;;;;;;;;;;;;;;
2022/03/05 02:45:55;;;;;;;6.13;4.23;;;;;;;;;;5023051;28;20034;-59
2022/03/05 02:54:44;;;;;;;6.77;4.97;;;;;;;;;;5012451;28;20033;-59
2022/03/05 02:57:17;;;;;;;5.37;3.63;;;;;;;;;;5006875;28;20041;-59
2022/03/05 03:03:02;;;;;;;8.63;4.47;;;;;;;;;;5029879;28;20147;-59
2022/03/05 03:08:43;;;;;;;;;;;;;;;;;;;;;
2022/03/05 03:14:44;;;;;;;9.07;5.50;;;;;;;;;;5055935;28;20108;-59
2022/03/05 03:17:18;;;;;;;7.55;4.35;;;;;;;;;;5006566;28;20046;-59
2022/03/05 03:20:09;;;;;;;7.70;4.77;;;;;;;;;;5006812;28;20049;-59
2022/03/05 03:22:57;;;;;;;9.37;5.47;;;;;;;;;;5044918;28;20056;-59
2022/03/05 03:29:00;;;;;;;7.97;7.17;;;;;;;;;;5057886;28;20082;-59
2022/03/05 03:31:30;;;;;;;6.30;4.67;;;;;;;;;;5067770;28;20032;-59
2022/03/05 03:37:51;;;;;;;6.87;4.53;;;;;;;;;;4988123;28;20047;-59
2022/03/05 03:40:26;;;;;;;8.07;5.73;;;;;;;;;;5089378;28;20034;-59
2022/03/05 03:43:15;;;;;;;11.90;6.53;;;;;;;;;;5089263;28;20020;-59
2022/03/05 03:46:04;;;;;;;14.17;5.93;;;;;;;;;;5088203;28;20021;-59
2022/03/05 03:48:52;;;;;;;9.23;5.77;;;;;;;;;;5088751;28;20062;-59
2022/03/05 03:51:43;;;;;;;10.30;6.17;;;;;;;;;;5087429;28;20021;-59
2022/03/05 03:54:27;;;;;;;8.15;6.15;;;;;;;;;;5070483;28;20031;-59
2022/03/05 03:57:18;;;;;;;7.20;5.33;;;;;;;;;;5088670;28;20035;-59
2022/03/05 04:00:04;;;;;;;8.27;5.33;;;;;;;;;;5088933;28;20032;-59
2022/03/05 04:06:04;;;;;;;10.37;5.57;;;;;;;;;;5002427;28;20121;-60
2022/03/05 04:11:36;;;;;;;7.97;4.27;;;;;;;;;;5007138;28;20042;-59
2022/03/05 04:20:25;;;;;;;5.77;4.23;;;;;;;;;;5006211;28;20065;-59
2022/03/05 04:23:00;;;;;;;9.37;5.83;;;;;;;;;;4997017;28;20571;-59
2022/03/05 04:25:35;;;;;;;6.33;5.33;;;;;;;;;;5006531;28;20042;-59
2022/03/05 04:28:22;;;;;;;9.57;5.97;;;;;;;;;;5021345;28;20419;-59
2022/03/05 04:34:08;;;;;;;11.03;5.77;;;;;;;;;;5091252;28;20024;-59
2022/03/05 04:37:00;;;;;;;9.17;4.87;;;;;;;;;;5095946;28;20048;-59
2022/03/05 04:39:40;;;;;;;14.13;7.17;;;;;;;;;;5095422;28;20036;-59
2022/03/05 04:42:27;;;;;;;6.03;3.80;;;;;;;;;;5077254;28;20027;-59
2022/03/05 04:45:14;;;;;;;14.27;6.63;;;;;;;;;;5096269;28;20031;-59
2022/03/05 04:48:04;;;;;;;10.67;6.57;;;;;;;;;;5094995;28;20024;-59
2022/03/05 04:50:55;;;;;;;;;;;;;;;;;;;;;
2022/03/05 04:53:36;;;;;;;10.00;5.67;;;;;;;;;;5093109;28;20028;-59
2022/03/05 04:56:22;;;;;;;;;;;;;;;;;;5096863;28;20024;-60
2022/03/05 05:02:22;;;;;;;9.87;5.47;;;;;;;;;;5081463;28;20032;-59
2022/03/05 05:04:58;;;;;;;8.63;5.60;;;;;;;;;;5095524;28;20489;-59
2022/03/05 05:07:27;;;;;;;11.03;7.40;;;;;;;;;;5076777;28;20028;-59
2022/03/05 05:10:14;;;;;;;12.37;6.57;;;;;;;;;;5095032;28;20090;-59
2022/03/05 05:13:02;;;;;;;9.17;7.23;;;;;;;;;;5076610;28;20387;-59
2022/03/05 05:15:42;;;;;;;8.40;5.83;;;;;;;;;;5095481;28;20157;-59
2022/03/05 05:19:32;;;;;;;8.63;7.47;;;;;;;;;;5095019;28;20043;-59
2022/03/05 05:23:55;;;;;;;12.93;6.33;;;;;;;;;;5094344;28;20031;-59
2022/03/05 05:29:42;;;;;;;8.20;6.77;;;;;;;;;;5052885;28;20024;-59
2022/03/05 05:32:27;;;;;;;11.37;6.67;;;;;;;;;;5094777;28;20081;-60
2022/03/05 05:35:12;;;;;;;16.67;7.57;;;;;;;;;;5094948;28;20116;-59
2022/03/05 05:44:18;;;;;;;7.37;6.33;;;;;;;;;;5062883;28;20044;-59
2022/03/05 05:59:18;;;;;;;7.90;6.53;;;;;;;;;;5086371;28;19908;-58
2022/03/05 06:02:08;;;;;;;13.60;8.03;;;;;;;;;;5077292;28;20066;-59
2022/03/05 06:04:45;;;;;;;11.10;7.80;;;;;;;;;;5092475;28;20493;-58
2022/03/05 06:07:23;;;;;;;11.87;8.13;;;;;;;;;;5094807;28;20051;-59
2022/03/05 06:13:09;;;;;;;12.63;9.60;;;;;;;;;;5082827;28;20039;-58
2022/03/05 06:15:54;;;;;;;;;;;;;;;;;;;;;
2022/03/05 06:18:44;;;;;;;17.40;10.30;;;;;;;;;;5098812;28;20111;-58
2022/03/05 06:21:31;;;;;;;13.53;10.33;;;;;;;;;;5089415;28;20119;-58
2022/03/05 06:24:35;;;;;;;16.43;9.57;;;;;;;;;;5075858;28;20036;-58
2022/03/05 06:27:24;;;;;;;12.57;8.77;;;;;;;;;;5044806;28;20047;-58
2022/03/05 06:30:25;;;;;;;12.38;8.93;;;;;;;;;;5094245;28;20024;-58
2022/03/05 06:33:15;;;;;;;11.43;7.23;;;;;;;;;;5093038;28;20031;-58
2022/03/05 06:35:50;;;;;;;11.88;9.35;;;;;;;;;;5076044;28;20036;-58
2022/03/05 06:38:59;;;;;;;14.93;8.23;;;;;;;;;;5098253;28;20063;-58
2022/03/05 06:47:57;;;;;;;12.37;9.50;;;;;;;;;;5087690;28;20154;-58
2022/03/05 06:50:53;;;;;;;10.20;7.50;;;;;;;;;;5092317;28;20028;-58
2022/03/05 06:53:37;;;;;;;9.67;5.27;;;;;;;;;;5095170;28;20036;-59
2022/03/05 06:59:13;;;;;;;17.47;8.57;;;;;;;;;;5097282;28;20036;-59
2022/03/05 07:02:26;;;;;;;17.77;10.37;;;;;;;;;;5098188;28;20032;-59
2022/03/05 07:08:21;;;;;;;12.30;10.37;;;;;;;;;;5087235;28;20484;-59
2022/03/05 07:14:06;;;;;;;;;;;;;;;;;;;;;
2022/03/05 07:19:55;;;;;;;13.50;8.60;;;;;;;;;;5096618;28;20185;-59
2022/03/05 07:23:10;;;;;;;;;;;;;;;;;;;;;
2022/03/05 07:28:23;;;;;;;11.20;9.10;;;;;;;;;;4956189;28;20076;-59
2022/03/05 07:31:08;;;;;;;13.20;9.57;;;;;;;;;;4995109;28;20412;-59
2022/03/05 07:36:39;;;;;;;14.07;9.40;;;;;;;;;;5012230;28;20430;-59
2022/03/05 07:39:17;;;;;;;13.17;8.70;;;;;;;;;;5055437;28;20544;-59
2022/03/05 07:47:39;;;;;;;13.53;10.13;;;;;;;;;;5052737;28;20033;-59
2022/03/05 07:52:57;;;;;;;10.80;9.17;;;;;;;;;;5061193;28;20397;-57
2022/03/05 07:55:51;;;;;;;;;;;;;;;;;;;;;
2022/03/05 07:58:26;;;;;;;16.63;8.47;;;;;;;;;;5093389;28;20044;-57
2022/03/05 08:01:34;;;;;;;14.97;10.47;;;;;;;;;;5074862;28;20474;-56
2022/03/05 08:07:44;;;;;;;16.43;8.23;;;;;;;;;;5092480;28;20063;-58
2022/03/05 08:13:34;;;;;;;;;;;;;;;;;;;;;
2022/03/05 08:19:11;;;;;;;15.00;9.88;;;;;;;;;;5080696;28;20059;-57
2022/03/05 08:21:44;;;;;;;10.83;9.67;;;;;;;;;;5096602;28;20058;-57
2022/03/05 08:27:38;;;;;;;15.57;9.13;;;;;;;;;;5076427;28;20127;-57
2022/03/05 08:33:02;;;;;;;15.07;9.20;;;;;;;;;;5095563;28;20539;-58
2022/03/05 08:36:35;;;;;;;13.33;10.50;;;;;;;;;;5095874;28;20373;-56
2022/03/05 08:38:36;;;;;;;11.43;7.27;;;;;;;;;;5079467;28;20382;-58
2022/03/05 08:41:18;;;;;;;13.30;10.17;;;;;;;;;;5080181;28;20032;-57
2022/03/05 08:44:00;;;;;;;14.20;10.90;;;;;;;;;;5110376;28;20024;-56
2022/03/05 08:46:43;;;;;;;15.37;7.83;;;;;;;;;;5110447;28;20134;-58
2022/03/05 08:49:18;;;;;;;11.40;8.60;;;;;;;;;;5110200;28;20028;-57
2022/03/05 08:52:10;;;;;;;17.03;10.50;;;;;;;;;;5092708;28;20040;-58
2022/03/05 08:55:24;;;;;;;13.50;9.60;;;;;;;;;;5089672;28;20096;-57
2022/03/05 08:58:38;;;;;;;;;;;;;;;;;;;;;
2022/03/05 09:01:32;;;;;;;16.13;11.27;;;;;;;;;;5110173;28;20060;-57
2022/03/05 09:03:59;;;;;;;14.23;10.43;;;;;;;;;;5092924;28;20028;-58
2022/03/05 09:06:53;;;;;;;13.50;10.07;;;;;;;;;;5109932;28;20039;-59
2022/03/05 09:09:40;;;;;;;12.63;10.43;;;;;;;;;;5109697;28;20032;-58
2022/03/05 09:12:51;;;;;;;11.03;8.47;;;;;;;;;;5110647;28;20032;-58
2022/03/05 09:15:20;;;;;;;10.37;8.53;;;;;;;;;;5108965;28;20051;-57
2022/03/05 09:18:14;;;;;;;16.23;11.57;;;;;;;;;;5109809;28;20036;-57
2022/03/05 09:20:58;;;;;;;12.17;9.03;;;;;;;;;;5109233;28;20046;-58
2022/03/05 09:23:44;;;;;;;13.90;10.57;;;;;;;;;;5105838;28;20409;-58
2022/03/05 09:26:33;;;;;;;;;;;;;;;;;;;;;
2022/03/05 09:29:22;;;;;;;;;;;;;;;;;;;;;
2022/03/05 09:32:00;;;;;;;10.87;8.50;;;;;;;;;;5108256;28;20497;-58
2022/03/05 09:34:26;;;;;;;18.77;9.90;;;;;;;;;;5108862;28;20065;-59
2022/03/05 09:39:57;;;;;;;13.50;9.90;;;;;;;;;;5108473;28;20081;-57
2022/03/05 09:42:57;;;;;;;14.95;10.20;;;;;;;;;;5098032;28;20035;-58
2022/03/05 09:45:37;;;;;;;13.60;8.98;;;;;;;;;;5076127;28;20474;-58
2022/03/05 09:48:33;;;;;;;9.83;7.27;;;;;;;;;;5093961;28;20032;-58
2022/03/05 09:51:06;;;;;;;10.65;8.05;;;;;;;;;;5094269;28;20035;-58
2022/03/05 09:59:38;;;;;;;8.63;7.07;;;;;;;;;;5094273;28;20084;-57
2022/03/05 10:02:25;;;;;;;10.48;8.60;;;;;;;;;;5094881;28;20070;-58
2022/03/05 10:05:16;;;;;;;11.00;6.93;;;;;;;;;;5095235;28;20024;-58
2022/03/05 10:08:12;;;;;;;9.07;6.95;;;;;;;;;;5094947;28;20055;-58
2022/03/05 10:14:00;;;;;;;10.25;7.70;;;;;;;;;;5079686;28;20043;-58
2022/03/05 10:16:50;;;;;;;12.50;7.35;;;;;;;;;;5063722;28;20064;-58
2022/03/05 10:19:45;;;;;;;10.00;7.10;;;;;;;;;;5075668;28;20174;-57
2022/03/05 10:22:22;;;;;;;8.63;6.45;;;;;;;;;;5093235;28;20028;-58
2022/03/05 10:25:09;;;;;;;;;;;;;;;;;;;;;
2022/03/05 10:27:43;;;;;;;9.43;7.72;;;;;;;;;;5062617;28;20028;-58
2022/03/05 10:30:23;;;;;;;8.73;6.10;;;;;;;;;;5036007;28;20032;-58
2022/03/05 10:33:00;;;;;;;7.63;6.07;;;;;;;;;;5094533;28;20071;-57
2022/03/05 10:35:30;;;;;;;8.63;5.72;;;;;;;;;;5094832;28;20028;-56
2022/03/05 10:37:59;;;;;;;9.18;5.63;;;;;;;;;;5094207;28;20097;-56
2022/03/05 10:43:56;;;;;;;7.65;5.93;;;;;;;;;;5025294;28;20026;-57
2022/03/05 10:49:50;;;;;;;7.68;5.38;;;;;;;;;;5093659;28;20441;-56
2022/03/05 10:56:09;;;;;;;10.23;6.30;;;;;;;;;;5064901;28;20387;-58
2022/03/05 10:59:00;;;;;;;;;;;;;;;;;;;;;
2022/03/05 11:04:31;;;;;;;;;;;;;;;;;;5069423;28;20073;-57
2022/03/05 11:07:23;;;;;;;10.30;6.47;;;;;;;;;;5107156;28;19908;-57
2022/03/05 11:10:16;;;;;;;8.73;6.20;;;;;;;;;;5104985;28;20025;-57
2022/03/05 11:13:28;;;;;;;;;;;;;;;;;;;;;
2022/03/05 11:16:09;;;;;;;;;;;;;;;;;;;;;
2022/03/05 11:21:55;;;;;;;10.27;6.55;;;;;;;;;;5107483;28;20103;-57
2022/03/05 11:24:40;;;;;;;11.23;6.00;;;;;;;;;;5111776;28;20040;-58
2022/03/05 11:30:20;;;;;;;8.05;5.70;;;;;;;;;;5102511;28;20059;-59
2022/03/05 11:33:01;;;;;;;8.52;4.75;;;;;;;;;;5072273;28;20040;-60
2022/03/05 11:38:57;;;;;;;9.20;5.03;;;;;;;;;;5106210;28;20034;-59
2022/03/05 11:44:41;;;;;;;9.18;6.47;;;;;;;;;;5096832;28;20496;-59
2022/03/05 11:47:30;;;;;;;9.30;6.15;;;;;;;;;;5096326;28;20032;-60
2022/03/05 11:50:13;;;;;;;8.43;5.88;;;;;;;;;;5077922;28;20020;-60
2022/03/05 11:59:43;;;;;;;11.25;5.60;;;;;;;;;;5021557;28;20508;-60
2022/03/05 12:02:09;;;;;;;12.40;7.10;;;;;;;;;;5096925;28;20032;-60
2022/03/05 12:07:40;;;;;;;;;;;;;;;;;;5021173;28;20076;-60
2022/03/05 12:10:38;;;;;;;10.32;6.40;;;;;;;;;;5094112;28;19940;-60
2022/03/05 12:13:21;;;;;;;9.05;6.28;;;;;;;;;;5079914;28;20430;-60
2022/03/05 12:19:08;;;;;;;10.50;6.20;;;;;;;;;;5071874;28;20047;-60
2022/03/05 12:22:24;;;;;;;12.90;5.13;;;;;;;;;;5096856;28;20051;-60
2022/03/05 12:24:54;;;;;;;9.15;5.53;;;;;;;;;;5102173;28;20323;-60
2022/03/05 12:27:53;;;;;;;7.72;5.28;;;;;;;;;;5070348;28;20051;-60
2022/03/05 12:33:42;;;;;;;8.77;5.78;;;;;;;;;;5027872;28;20501;-60
2022/03/05 12:36:16;;;;;;;8.52;6.20;;;;;;;;;;5042945;28;20030;-60
2022/03/05 12:39:18;;;;;;;7.82;5.78;;;;;;;;;;5041905;28;20033;-60
2022/03/05 12:42:08;;;;;;;8.65;5.93;;;;;;;;;;5003078;28;20042;-60
2022/03/05 12:44:56;;;;;;;7.95;5.47;;;;;;;;;;5022794;28;20544;-60
2022/03/05 12:47:43;;;;;;;8.32;6.07;;;;;;;;;;5041269;28;20083;-59
2022/03/05 12:50:36;;;;;;;9.30;6.25;;;;;;;;;;5008679;28;20025;-60
2022/03/05 12:53:34;;;;;;;10.00;6.13;;;;;;;;;;5025171;28;20450;-59
2022/03/05 12:56:20;;;;;;;;;;;;;;;;;;;;;
2022/03/05 13:05:17;;;;;;;6.63;4.93;;;;;;;;;;5019704;28;20101;-60
2022/03/05 13:07:54;;;;;;;8.63;5.50;;;;;;;;;;4998310;28;20084;-59
2022/03/05 13:13:31;;;;;;;10.27;6.07;;;;;;;;;;5050631;28;20032;-60
2022/03/05 13:16:20;;;;;;;8.32;5.25;;;;;;;;;;5033792;28;20040;-60
2022/03/05 13:19:08;;;;;;;8.07;5.60;;;;;;;;;;5082300;28;20028;-60
2022/03/05 13:21:49;;;;;;;5.40;4.20;;;;;;;;;;5078122;28;20074;-60
2022/03/05 13:24:28;;;;;;;8.68;4.88;;;;;;;;;;5078415;28;20552;-60
2022/03/05 13:27:23;;;;;;;7.88;5.75;;;;;;;;;;5101433;28;20024;-60
2022/03/05 13:36:23;;;;;;;9.75;6.57;;;;;;;;;;5025215;28;20037;-60
2022/03/05 13:42:19;;;;;;;9.10;5.50;;;;;;;;;;5103024;28;20032;-59
2022/03/05 13:48:14;;;;;;;6.57;4.72;;;;;;;;;;5061731;28;20032;-59
2022/03/05 13:50:49;;;;;;;8.75;6.43;;;;;;;;;;5070353;28;20055;-59
2022/03/05 13:53:44;;;;;;;7.22;5.15;;;;;;;;;;5100983;28;20052;-59
2022/03/05 13:56:28;;;;;;;9.30;6.32;;;;;;;;;;5101040;28;20077;-59
2022/03/05 13:59:10;;;;;;;;;;;;;;;;;;;;;
2022/03/05 14:01:39;;;;;;;8.65;5.10;;;;;;;;;;5082936;28;20131;-59
2022/03/05 14:04:56;;;;;;;8.05;6.03;;;;;;;;;;5097828;28;20024;-60
2022/03/05 14:07:31;;;;;;;7.53;5.47;;;;;;;;;;5016876;28;20030;-60
2022/03/05 14:10:27;;;;;;;7.53;5.75;;;;;;;;;;5017336;28;20026;-60
2022/03/05 14:12:57;;;;;;;9.95;5.03;;;;;;;;;;5016117;28;20120;-59
2022/03/05 14:15:27;;;;;;;;;;;;;;;;;;5022643;28;20169;-60
2022/03/05 14:18:15;;;;;;;13.57;6.20;;;;;;;;;;5082208;28;19912;-60
2022/03/05 14:21:10;;;;;;;8.57;5.10;;;;;;;;;;5099941;28;20056;-59
2022/03/05 14:23:28;;;;;;;9.57;6.80;;;;;;;;;;5095046;28;20039;-60
2022/03/05 14:26:12;;;;;;;9.48;5.97;;;;;;;;;;5077851;28;20036;-59
2022/03/05 14:29:04;;;;;;;7.68;4.95;;;;;;;;;;5081936;28;20055;-59
2022/03/05 14:32:02;;;;;;;7.93;5.30;;;;;;;;;;5079835;28;20381;-60
2022/03/05 14:34:29;;;;;;;7.10;5.90;;;;;;;;;;5002479;28;20037;-59
2022/03/05 14:37:07;;;;;;;9.50;6.05;;;;;;;;;;5096300;28;20117;-60
2022/03/05 14:39:43;;;;;;;9.38;5.70;;;;;;;;;;5083125;28;20481;-60
2022/03/05 14:42:09;;;;;;;6.82;5.05;;;;;;;;;;5077158;28;20039;-59
2022/03/05 14:44:44;;;;;;;8.30;5.45;;;;;;;;;;5081255;28;20028;-60
2022/03/05 14:47:20;;;;;;;8.93;5.78;;;;;;;;;;5100016;28;20112;-60
2022/03/05 14:49:59;;;;;;;9.80;6.28;;;;;;;;;;5100660;28;20024;-59
2022/03/05 14:52:27;;;;;;;6.15;5.28;;;;;;;;;;5081105;28;20020;-60
2022/03/05 14:55:15;;;;;;;9.82;5.30;;;;;;;;;;5081445;28;20052;-60
2022/03/05 14:57:42;;;;;;;5.05;4.47;;;;;;;;;;5101907;28;20035;-60
2022/03/05 15:06:15;;;;;;;7.78;6.05;;;;;;;;;;5104463;28;20039;-60
2022/03/05 15:08:53;;;;;;;8.98;6.60;;;;;;;;;;5080607;28;20051;-60
2022/03/05 15:11:53;;;;;;;7.18;5.00;;;;;;;;;;5083997;28;20466;-60
2022/03/05 15:14:28;;;;;;;9.40;5.30;;;;;;;;;;5087240;28;20087;-60
2022/03/05 15:23:39;;;;;;;8.23;4.38;;;;;;;;;;5026660;28;20404;-60
2022/03/05 15:26:17;;;;;;;11.88;4.72;;;;;;;;;;5093330;28;20146;-60
2022/03/05 15:32:44;;;;;;;9.38;6.13;;;;;;;;;;5014808;28;20472;-60
2022/03/05 15:38:51;;;;;;;6.10;4.43;;;;;;;;;;5009335;28;20037;-59
2022/03/05 15:41:20;;;;;;;6.55;4.43;;;;;;;;;;5023742;28;20512;-60
2022/03/05 15:44:07;;;;;;;6.35;4.70;;;;;;;;;;5097748;28;20512;-60
2022/03/05 15:46:49;;;;;;;;;;;;;;;;;;;;;
2022/03/05 15:49:40;;;;;;;8.15;4.80;;;;;;;;;;5080933;28;20512;-60
2022/03/05 15:52:26;;;;;;;6.57;4.33;;;;;;;;;;5097275;28;20405;-58
2022/03/05 15:58:09;;;;;;;6.00;4.45;;;;;;;;;;5069423;28;20081;-57
2022/03/05 16:00:44;;;;;;;8.23;5.38;;;;;;;;;;5096554;28;20720;-57
2022/03/05 16:03:34;;;;;;;7.32;4.50;;;;;;;;;;5079082;28;20046;-57
2022/03/05 16:09:26;;;;;;;8.20;4.72;;;;;;;;;;5095346;28;20491;-57
2022/03/05 16:12:18;;;;;;;10.02;4.05;;;;;;;;;;5016658;28;20048;-58
2022/03/05 16:14:57;;;;;;;7.55;4.75;;;;;;;;;;5064907;28;20032;-57
2022/03/05 16:17:32;;;;;;;5.80;3.80;;;;;;;;;;5061110;28;20039;-57
2022/03/05 16:20:05;;;;;;;7.40;5.10;;;;;;;;;;5072123;28;20074;-58
2022/03/05 16:22:54;;;;;;;6.95;4.93;;;;;;;;;;5077906;28;20449;-58
2022/03/05 16:25:29;;;;;;;5.13;4.05;;;;;;;;;;5096579;28;20477;-57
2022/03/05 16:27:57;;;;;;;7.10;4.32;;;;;;;;;;5068995;28;20573;-58
2022/03/05 16:30:44;;;;;;;6.82;5.28;;;;;;;;;;5096207;28;20465;-57
2022/03/05 16:39:14;;;;;;;7.10;4.47;;;;;;;;;;5013497;28;20137;-58
2022/03/05 16:42:03;;;;;;;8.07;5.47;;;;;;;;;;5078981;28;20024;-57
2022/03/05 16:47:39;;;;;;;7.97;5.43;;;;;;;;;;5071520;28;20081;-56
2022/03/05 16:50:19;;;;;;;8.82;4.60;;;;;;;;;;5076550;28;20503;-57
2022/03/05 16:53:16;;;;;;;11.43;5.53;;;;;;;;;;5067052;28;20447;-54
2022/03/05 16:56:03;;;;;;;6.90;5.05;;;;;;;;;;5076807;28;20028;-57
2022/03/05 16:58:29;;;;;;;10.15;4.65;;;;;;;;;;5075618;28;20036;-57
2022/03/05 17:01:13;;;;;;;8.75;5.47;;;;;;;;;;5094877;28;20385;-56
2022/03/05 17:03:56;;;;;;;6.53;4.45;;;;;;;;;;5076458;28;20378;-56
2022/03/05 17:06:39;;;;;;;6.90;4.00;;;;;;;;;;5076503;28;20464;-57
2022/03/05 17:12:38;;;;;;;8.00;5.18;;;;;;;;;;5039597;28;20067;-57
2022/03/05 17:15:15;;;;;;;5.00;3.30;;;;;;;;;;5051565;28;20079;-56
2022/03/05 17:18:22;;;;;;;9.48;4.78;;;;;;;;;;5052151;28;20029;-57
2022/03/05 17:21:07;;;;;;;;;;;;;;;;;;;;;
2022/03/05 17:23:57;;;;;;;8.00;5.68;;;;;;;;;;5079491;28;20026;-57
2022/03/05 17:26:39;;;;;;;7.82;4.97;;;;;;;;;;5076094;28;20032;-57
2022/03/05 17:29:28;;;;;;;8.25;5.55;;;;;;;;;;5075983;28;20074;-57
2022/03/05 17:31:57;;;;;;;8.20;4.78;;;;;;;;;;5075354;28;20028;-57
2022/03/05 17:34:37;;;;;;;10.60;6.43;;;;;;;;;;5073270;28;20028;-56
2022/03/05 17:37:39;;;;;;;8.50;6.22;;;;;;;;;;5075798;28;20077;-57
2022/03/05 17:40:35;;;;;;;7.50;5.78;;;;;;;;;;5072311;28;20028;-58
2022/03/05 17:43:12;;;;;;;8.55;5.78;;;;;;;;;;5069809;28;20369;-57
2022/03/05 17:46:04;;;;;;;6.27;4.57;;;;;;;;;;5076409;28;20046;-54
2022/03/05 17:49:01;;;;;;;7.93;5.97;;;;;;;;;;5075047;28;20070;-55
2022/03/05 17:51:59;;;;;;;6.90;5.43;;;;;;;;;;5076612;28;20052;-56
2022/03/05 17:54:39;;;;;;;7.80;5.73;;;;;;;;;;5075347;28;20428;-56
2022/03/05 17:57:28;;;;;;;9.10;5.93;;;;;;;;;;5075711;28;20024;-58
2022/03/05 18:00:03;;;;;;;10.27;6.35;;;;;;;;;;5073173;28;20036;-56
2022/03/05 18:02:57;;;;;;;7.55;4.32;;;;;;;;;;5077194;28;20052;-55
2022/03/05 18:06:03;;;;;;;;;;;;;;;;;;;;;
2022/03/05 18:08:41;;;;;;;7.10;5.20;;;;;;;;;;5094450;28;20472;-54
2022/03/05 18:11:28;;;;;;;;;;;;;;;;;;;;;
2022/03/05 18:14:00;;;;;;;9.03;5.03;;;;;;;;;;5094449;28;20038;-58
2022/03/05 18:16:33;;;;;;;7.90;5.07;;;;;;;;;;5092466;28;20032;-57
2022/03/05 18:22:00;;;;;;;;;;;;;;;;;;;;;
2022/03/05 18:27:47;;;;;;;9.43;4.90;;;;;;;;;;5078468;28;20027;-56
2022/03/05 18:30:23;;;;;;;8.47;5.37;;;;;;;;;;5094326;28;20034;-57
2022/03/05 18:33:21;;;;;;;9.60;5.50;;;;;;;;;;5097612;28;20052;-57
2022/03/05 18:36:08;;;;;;;10.27;4.73;;;;;;;;;;5015912;28;20045;-58
2022/03/05 18:39:07;;;;;;;9.80;5.13;;;;;;;;;;5015694;28;20423;-57
2022/03/05 18:42:02;;;;;;;7.27;3.73;;;;;;;;;;5096608;28;20470;-58
2022/03/05 18:44:33;;;;;;;7.20;5.07;;;;;;;;;;5086994;28;20085;-57
2022/03/05 18:47:16;;;;;;;9.93;6.20;;;;;;;;;;5098398;28;20498;-58
2022/03/05 18:49:50;;;;;;;10.83;6.87;;;;;;;;;;5076976;28;20032;-57
2022/03/05 18:52:28;;;;;;;7.50;5.53;;;;;;;;;;5097815;28;20358;-58
2022/03/05 18:55:14;;;;;;;7.27;4.50;;;;;;;;;;5097332;28;20024;-58
2022/03/05 18:58:06;;;;;;;7.07;4.83;;;;;;;;;;5097816;28;20024;-57
2022/03/05 19:00:44;;;;;;;6.87;5.27;;;;;;;;;;5097802;28;20027;-57
2022/03/05 19:10:15;;;;;;;7.83;5.57;;;;;;;;;;4977834;28;20488;-58
2022/03/05 19:15:53;;;;;;;8.97;5.47;;;;;;;;;;5055151;28;20036;-56
2022/03/05 19:18:25;;;;;;;11.87;5.20;;;;;;;;;;5097781;28;20039;-58
2022/03/05 19:20:54;;;;;;;6.73;5.30;;;;;;;;;;5078224;28;20093;-57
2022/03/05 19:23:47;;;;;;;8.60;5.53;;;;;;;;;;5095965;28;20028;-57
2022/03/05 19:29:55;;;;;;;6.97;5.43;;;;;;;;;;5088520;28;20123;-58
2022/03/05 19:32:54;;;;;;;10.47;7.17;;;;;;;;;;5054470;28;20040;-58
2022/03/05 19:35:39;;;;;;;8.00;5.93;;;;;;;;;;5034793;28;20021;-58
2022/03/05 19:38:34;;;;;;;9.17;5.87;;;;;;;;;;5097780;28;20050;-58
2022/03/05 19:41:01;;;;;;;9.77;6.07;;;;;;;;;;5096960;28;20031;-59
2022/03/05 19:49:38;;;;;;;;;;;;;;;;;;;;;
2022/03/05 19:52:23;;;;;;;;;;;;;;;;;;;;;
2022/03/05 19:55:08;;;;;;;9.27;5.57;;;;;;;;;;5097035;28;20436;-58
2022/03/05 19:57:34;;;;;;;8.63;5.67;;;;;;;;;;5096848;28;20040;-58
2022/03/05 20:00:20;;;;;;;11.70;6.37;;;;;;;;;;5096674;28;20027;-58
2022/03/05 20:02:50;;;;;;;7.73;5.37;;;;;;;;;;5097512;28;20024;-54
2022/03/05 20:05:50;;;;;;;7.40;5.10;;;;;;;;;;5078406;28;20080;-57
2022/03/05 20:08:58;;;;;;;7.90;5.77;;;;;;;;;;5087257;28;20040;-54
2022/03/05 20:11:49;;;;;;;;;;;;;;;;;;;;;
2022/03/05 20:14:32;;;;;;;8.57;6.30;;;;;;;;;;5096638;28;20114;-58
2022/03/05 20:17:06;;;;;;;6.80;4.90;;;;;;;;;;5078845;28;20063;-58
2022/03/05 20:20:05;;;;;;;8.13;5.93;;;;;;;;;;5097708;28;20099;-57
2022/03/05 20:22:43;;;;;;;9.73;5.57;;;;;;;;;;5087503;28;20043;-58
2022/03/05 20:31:34;;;;;;;10.63;6.00;;;;;;;;;;5016140;28;20034;-58
2022/03/05 20:37:04;;;;;;;12.70;7.27;;;;;;;;;;5018861;28;20487;-58
2022/03/05 20:39:39;;;;;;;7.77;4.93;;;;;;;;;;5076567;28;20125;-58
2022/03/05 20:42:38;;;;;;;9.60;6.07;;;;;;;;;;5095306;28;20477;-57
2022/03/05 20:45:21;;;;;;;7.87;6.17;;;;;;;;;;5092501;28;20032;-57
2022/03/05 20:47:47;;;;;;;8.43;6.50;;;;;;;;;;5094943;28;20024;-57
2022/03/05 20:50:34;;;;;;;10.70;6.13;;;;;;;;;;5077217;28;20038;-58
2022/03/05 20:53:26;;;;;;;7.67;5.87;;;;;;;;;;5091502;28;20035;-59
2022/03/05 20:55:57;;;;;;;11.30;6.97;;;;;;;;;;5089978;28;20036;-59
2022/03/05 20:58:47;;;;;;;11.13;6.50;;;;;;;;;;5095530;28;20036;-58
2022/03/05 21:01:40;;;;;;;10.23;5.63;;;;;;;;;;5094689;28;20032;-58
2022/03/05 21:04:18;;;;;;;10.70;6.70;;;;;;;;;;5095261;28;20074;-57
2022/03/05 21:09:56;;;;;;;7.70;5.40;;;;;;;;;;5094823;28;20047;-58
2022/03/05 21:12:35;;;;;;;9.40;5.67;;;;;;;;;;5094666;28;20059;-58
2022/03/05 21:17:56;;;;;;;10.17;6.40;;;;;;;;;;5063008;28;20389;-58
2022/03/05 21:20:36;;;;;;;8.43;5.07;;;;;;;;;;5075952;28;20024;-57
2022/03/05 21:23:03;;;;;;;10.02;6.22;;;;;;;;;;5046668;28;20175;-56
2022/03/05 21:25:48;;;;;;;;;;;;;;;;;;;;;
2022/03/05 21:28:48;;;;;;;;;;;;;;;;;;;;;
2022/03/05 21:31:34;;;;;;;11.40;6.47;;;;;;;;;;5036607;28;20040;-57
2022/03/05 21:37:32;;;;;;;10.70;7.70;;;;;;;;;;5044161;28;20074;-58
2022/03/05 21:40:14;;;;;;;11.70;7.30;;;;;;;;;;5075402;28;20103;-58
2022/03/05 21:45:49;;;;;;;8.20;5.47;;;;;;;;;;5074711;28;20047;-56
2022/03/05 21:48:48;;;;;;;11.50;7.20;;;;;;;;;;5058253;28;20043;-58
2022/03/05 21:51:52;;;;;;;8.67;6.37;;;;;;;;;;5069828;28;20119;-57
2022/03/05 21:54:56;;;;;;;9.57;6.37;;;;;;;;;;5032287;28;20033;-56
2022/03/05 22:01:02;;;;;;;12.00;7.37;;;;;;;;;;5033095;28;20459;-57
2022/03/05 22:03:54;;;;;;;7.73;6.40;;;;;;;;;;5041623;28;20102;-57
2022/03/05 22:06:52;;;;;;;10.67;6.77;;;;;;;;;;4977057;28;20029;-56
2022/03/05 22:09:42;;;;;;;10.10;7.53;;;;;;;;;;5040477;28;20091;-58
2022/03/05 22:12:17;;;;;;;11.93;5.82;;;;;;;;;;5027258;28;20022;-57
2022/03/05 22:15:06;;;;;;;7.47;6.57;;;;;;;;;;5040521;28;20060;-56
2022/03/05 22:17:53;;;;;;;8.93;6.67;;;;;;;;;;5040388;28;20128;-57
2022/03/05 22:20:42;;;;;;;10.90;5.57;;;;;;;;;;5040192;28;20037;-57
2022/03/05 22:23:25;;;;;;;10.40;7.63;;;;;;;;;;5052453;28;20104;-56